createdAt,value
2018-08-19T00:01:03.330Z,99.90
2018-08-19T00:03:31.541Z,99.90
2018-08-19T00:05:59.783Z,99.90
2018-08-19T00:08:28.132Z,99.90
2018-08-19T00:11:01.452Z,99.90
2018-08-19T00:13:29.665Z,99.90
2018-08-19T00:15:57.903Z,99.90
2018-08-19T00:18:26.085Z,99.90
2018-08-19T00:20:54.233Z,99.90
2018-08-19T00:23:22.437Z,99.90
2018-08-19T00:25:50.729Z,99.90
2018-08-19T00:28:20.175Z,99.90
2018-08-19T00:30:48.666Z,99.90
2018-08-19T00:33:17.685Z,99.90
2018-08-19T00:35:46.201Z,99.90
2018-08-19T00:38:15.701Z,99.90
2018-08-19T00:40:44.373Z,99.90
2018-08-19T00:43:12.758Z,99.90
2018-08-19T00:45:41.225Z,99.90
2018-08-19T00:48:11.263Z,99.90
2018-08-19T00:50:40.160Z,99.90
2018-08-19T00:53:09.810Z,99.90
2018-08-19T00:55:43.663Z,99.90
2018-08-19T00:58:18.496Z,99.90
2018-08-19T01:00:47.024Z,99.90
2018-08-19T01:03:15.435Z,99.90
2018-08-19T01:05:43.839Z,99.90
2018-08-19T01:08:13.569Z,99.90
2018-08-19T01:10:42.136Z,99.90
2018-08-19T01:13:11.675Z,99.90
2018-08-19T01:15:40.218Z,99.90
2018-08-19T01:18:08.678Z,99.90
2018-08-19T01:20:37.224Z,99.90
2018-08-19T01:23:05.718Z,99.90
2018-08-19T01:25:34.149Z,99.90
2018-08-19T01:28:02.702Z,99.90
2018-08-19T01:30:31.194Z,99.90
2018-08-19T01:32:59.640Z,99.90
2018-08-19T01:35:33.441Z,99.90
2018-08-19T01:38:01.746Z,99.90
2018-08-19T01:40:30.297Z,99.90
2018-08-19T01:42:58.728Z,99.90
2018-08-19T01:45:27.098Z,99.90
2018-08-19T01:47:55.474Z,99.90
2018-08-19T01:50:23.886Z,99.90
2018-08-19T01:52:52.308Z,99.90
2018-08-19T01:55:20.751Z,99.90
2018-08-19T01:57:50.452Z,99.90
2018-08-19T02:00:19.267Z,99.90
2018-08-19T02:02:57.686Z,99.90
2018-08-19T02:05:26.682Z,99.90
2018-08-19T02:07:57.670Z,99.90
2018-08-19T02:10:26.705Z,99.90
2018-08-19T02:12:56.225Z,99.90
2018-08-19T02:15:26.098Z,99.90
2018-08-19T02:17:57.165Z,99.90
2018-08-19T02:20:31.879Z,99.90
2018-08-19T02:23:08.321Z,99.90
2018-08-19T02:25:40.794Z,99.90
2018-08-19T02:28:09.966Z,99.90
2018-08-19T02:30:46.470Z,99.90
2018-08-19T02:33:14.787Z,99.90
2018-08-19T02:35:44.451Z,99.90
2018-08-19T02:38:12.969Z,99.90
2018-08-19T02:40:41.443Z,99.90
2018-08-19T02:43:09.948Z,99.90
2018-08-19T02:45:38.504Z,99.90
2018-08-19T02:48:06.986Z,99.90
2018-08-19T02:50:35.445Z,99.90
2018-08-19T02:53:03.923Z,99.90
2018-08-19T02:55:32.446Z,99.90
2018-08-19T02:58:06.123Z,99.90
2018-08-19T03:00:34.568Z,99.90
2018-08-19T03:03:03.052Z,99.90
2018-08-19T03:05:31.439Z,99.90
2018-08-19T03:08:00.118Z,99.90
2018-08-19T03:10:28.738Z,99.90
2018-08-19T03:12:57.136Z,99.90
2018-08-19T03:15:25.675Z,99.90
2018-08-19T03:17:54.098Z,99.90
2018-08-19T03:20:22.486Z,99.90
2018-08-19T03:22:50.916Z,99.90
2018-08-19T03:25:19.862Z,99.90
2018-08-19T03:27:48.413Z,99.90
2018-08-19T03:30:16.823Z,99.90
2018-08-19T03:32:50.828Z,99.90
2018-08-19T03:35:20.885Z,99.90
2018-08-19T03:37:52.295Z,99.90
2018-08-19T03:40:20.766Z,99.90
2018-08-19T03:42:49.216Z,99.90
2018-08-19T03:45:20.698Z,99.90
2018-08-19T03:47:52.217Z,99.90
2018-08-19T03:50:24.692Z,99.90
2018-08-19T03:52:53.888Z,99.90
2018-08-19T03:55:28.387Z,99.90
2018-08-19T03:58:05.566Z,99.90
2018-08-19T04:00:35.185Z,99.90
2018-08-19T04:03:10.686Z,99.90
2018-08-19T04:05:46.842Z,99.90
2018-08-19T04:08:16.100Z,99.90
2018-08-19T04:10:45.686Z,99.90
2018-08-19T04:13:29.018Z,99.90
2018-08-19T04:15:59.526Z,99.90
2018-08-19T04:18:34.970Z,99.90
2018-08-19T04:21:04.832Z,99.90
2018-08-19T04:23:33.984Z,99.90
2018-08-19T04:26:02.709Z,99.90
2018-08-19T04:28:34.272Z,99.90
2018-08-19T04:31:03.910Z,99.90
2018-08-19T04:33:33.105Z,99.90
2018-08-19T04:36:01.911Z,99.90
2018-08-19T04:38:30.477Z,99.90
2018-08-19T04:40:59.883Z,99.90
2018-08-19T04:43:29.293Z,99.90
2018-08-19T04:45:57.623Z,99.90
2018-08-19T04:48:27.188Z,99.90
2018-08-19T04:50:56.748Z,99.90
2018-08-19T04:53:25.356Z,99.90
2018-08-19T04:55:54.522Z,99.90
2018-08-19T04:58:22.973Z,99.90
2018-08-19T05:00:51.524Z,99.90
2018-08-19T05:03:20.067Z,99.90
2018-08-19T05:05:48.439Z,99.90
2018-08-19T05:08:16.972Z,99.90
2018-08-19T05:10:45.268Z,99.90
2018-08-19T05:13:14.030Z,99.90
2018-08-19T05:15:42.987Z,99.90
2018-08-19T05:18:11.485Z,99.90
2018-08-19T05:20:39.914Z,99.90
2018-08-19T05:23:08.861Z,99.90
2018-08-19T05:25:45.672Z,99.90
2018-08-19T05:28:17.711Z,99.90
2018-08-19T05:30:46.924Z,99.90
2018-08-19T05:33:15.333Z,99.90
2018-08-19T05:35:43.813Z,99.90
2018-08-19T05:38:12.375Z,99.90
2018-08-19T05:40:47.997Z,99.90
2018-08-19T05:43:16.573Z,99.90
2018-08-19T05:45:50.230Z,99.90
2018-08-19T05:48:18.730Z,99.90
2018-08-19T05:50:47.187Z,99.90
2018-08-19T05:53:15.627Z,99.90
2018-08-19T05:55:44.301Z,99.90
2018-08-19T05:58:12.937Z,99.90
2018-08-19T06:00:42.750Z,99.90
2018-08-19T06:03:11.437Z,99.90
2018-08-19T06:05:39.949Z,99.90
2018-08-19T06:08:13.850Z,99.90
2018-08-19T06:10:42.573Z,99.90
2018-08-19T06:13:11.887Z,99.90
2018-08-19T06:15:40.415Z,99.90
2018-08-19T06:18:09.803Z,99.90
2018-08-19T06:20:38.214Z,99.90
2018-08-19T06:23:06.655Z,99.90
2018-08-19T06:25:35.027Z,99.90
2018-08-19T06:28:03.535Z,99.90
2018-08-19T06:30:32.834Z,99.90
2018-08-19T06:33:01.359Z,99.90
2018-08-19T06:35:29.774Z,99.90
2018-08-19T06:37:58.175Z,99.90
2018-08-19T06:40:26.662Z,99.90
2018-08-19T06:42:55.023Z,99.90
2018-08-19T06:45:23.373Z,99.90
2018-08-19T06:47:51.783Z,99.90
2018-08-19T06:50:28.145Z,99.90
2018-08-19T06:52:56.826Z,99.90
2018-08-19T06:55:25.237Z,99.90
2018-08-19T06:57:55.598Z,99.90
2018-08-19T07:00:27.714Z,99.90
2018-08-19T07:02:59.692Z,99.90
2018-08-19T07:05:28.200Z,99.90
2018-08-19T07:07:56.633Z,99.90
2018-08-19T07:10:31.243Z,99.50
2018-08-19T07:13:07.010Z,99.90
2018-08-19T07:15:36.706Z,99.00
2018-08-19T07:18:06.256Z,97.00
2018-08-19T07:20:34.923Z,96.60
2018-08-19T07:23:03.317Z,94.90
2018-08-19T07:25:31.710Z,95.30
2018-08-19T07:28:00.213Z,95.50
2018-08-19T07:30:28.613Z,94.90
2018-08-19T07:32:57.110Z,95.10
2018-08-19T07:35:25.476Z,93.20
2018-08-19T07:37:53.871Z,91.80
2018-08-19T07:40:22.261Z,90.50
2018-08-19T07:42:50.631Z,90.40
2018-08-19T07:45:19.042Z,89.70
2018-08-19T07:47:47.418Z,90.30
2018-08-19T07:50:15.853Z,90.60
2018-08-19T07:52:44.273Z,90.30
2018-08-19T07:55:12.623Z,88.50
2018-08-19T07:57:41.300Z,89.10
2018-08-19T08:00:10.210Z,91.40
2018-08-19T08:02:38.594Z,92.20
2018-08-19T08:05:08.293Z,93.90
2018-08-19T08:07:36.810Z,92.20
2018-08-19T08:10:06.220Z,92.90
2018-08-19T08:12:34.639Z,93.10
2018-08-19T08:15:03.148Z,90.20
2018-08-19T08:17:31.450Z,86.20
2018-08-19T08:20:04.473Z,82.20
2018-08-19T08:22:33.842Z,80.00
2018-08-19T08:25:02.238Z,77.00
2018-08-19T08:27:31.708Z,76.80
2018-08-19T08:30:03.524Z,79.30
2018-08-19T08:32:31.945Z,75.50
2018-08-19T08:35:00.457Z,70.80
2018-08-19T08:37:28.956Z,70.00
2018-08-19T08:40:02.433Z,67.30
2018-08-19T08:42:39.612Z,63.80
2018-08-19T08:45:08.815Z,62.00
2018-08-19T08:47:37.397Z,63.90
2018-08-19T08:50:06.086Z,59.90
2018-08-19T08:52:34.450Z,59.20
2018-08-19T08:55:03.614Z,59.60
2018-08-19T08:57:32.078Z,59.60
2018-08-19T09:00:00.468Z,65.00
2018-08-19T09:02:28.945Z,59.50
2018-08-19T09:04:57.309Z,59.60
2018-08-19T09:07:27.499Z,58.80
2018-08-19T09:09:56.049Z,58.00
2018-08-19T09:12:35.770Z,57.40
2018-08-19T09:15:04.582Z,57.00
2018-08-19T09:17:33.039Z,57.20
2018-08-19T09:20:01.380Z,55.90
2018-08-19T09:22:29.771Z,55.90
2018-08-19T09:24:58.025Z,56.60
2018-08-19T09:27:26.550Z,53.40
2018-08-19T09:29:55.064Z,54.90
2018-08-19T09:32:23.527Z,55.80
2018-08-19T09:34:51.989Z,56.00
2018-08-19T09:37:20.266Z,53.30
2018-08-19T09:39:48.823Z,52.10
2018-08-19T09:42:17.186Z,52.20
2018-08-19T09:44:45.683Z,51.50
2018-08-19T09:47:14.184Z,49.80
2018-08-19T09:49:42.539Z,50.30
2018-08-19T09:52:10.958Z,51.10
2018-08-19T09:54:39.368Z,53.10
2018-08-19T09:57:08.530Z,50.70
2018-08-19T09:59:36.879Z,50.70
2018-08-19T10:02:07.613Z,49.80
2018-08-19T10:04:35.974Z,51.20
2018-08-19T10:07:10.181Z,50.40
2018-08-19T10:09:38.715Z,48.60
2018-08-19T10:12:07.260Z,47.00
2018-08-19T10:14:35.662Z,47.30
2018-08-19T10:17:04.019Z,50.90
2018-08-19T10:19:32.510Z,52.30
2018-08-19T10:22:00.954Z,49.50
2018-08-19T10:24:30.749Z,48.50
2018-08-19T10:26:59.519Z,49.30
2018-08-19T10:29:27.896Z,47.50
2018-08-19T10:31:58.346Z,44.70
2018-08-19T10:34:35.137Z,43.50
2018-08-19T10:37:04.002Z,42.30
2018-08-19T10:39:32.404Z,44.20
2018-08-19T10:42:17.898Z,41.60
2018-08-19T10:44:48.162Z,42.00
2018-08-19T10:47:16.512Z,39.00
2018-08-19T10:49:54.206Z,37.80
2018-08-19T10:52:26.230Z,36.40
2018-08-19T10:54:55.756Z,35.30
2018-08-19T10:57:24.261Z,36.80
2018-08-19T10:59:55.697Z,36.60
2018-08-19T11:02:24.269Z,38.40
2018-08-19T11:04:55.173Z,39.30
2018-08-19T11:07:23.542Z,38.40
2018-08-19T11:10:09.373Z,37.40
2018-08-19T11:12:37.799Z,36.20
2018-08-19T11:15:16.189Z,35.40
2018-08-19T11:17:44.801Z,34.80
2018-08-19T11:20:13.187Z,34.90
2018-08-19T11:22:41.669Z,35.50
2018-08-19T11:25:10.053Z,34.00
2018-08-19T11:27:38.501Z,35.50
2018-08-19T11:30:06.796Z,37.40
2018-08-19T11:32:37.064Z,35.60
2018-08-19T11:35:05.886Z,34.70
2018-08-19T11:37:34.302Z,33.60
2018-08-19T11:40:02.646Z,37.60
2018-08-19T11:42:31.058Z,37.20
2018-08-19T11:44:59.567Z,34.40
2018-08-19T11:47:27.958Z,33.80
2018-08-19T11:49:56.339Z,35.90
2018-08-19T11:52:24.743Z,36.50
2018-08-19T11:54:53.207Z,38.40
2018-08-19T11:57:21.649Z,36.20
2018-08-19T11:59:50.081Z,35.20
2018-08-19T12:02:19.878Z,36.20
2018-08-19T12:04:48.522Z,36.30
2018-08-19T12:07:17.400Z,33.80
2018-08-19T12:10:00.010Z,33.80
2018-08-19T12:12:46.167Z,32.30
2018-08-19T12:15:14.535Z,32.60
2018-08-19T12:17:43.006Z,34.60
2018-08-19T12:20:11.487Z,33.40
2018-08-19T12:22:41.402Z,32.20
2018-08-19T12:25:09.743Z,31.60
2018-08-19T12:27:38.225Z,33.40
2018-08-19T12:30:11.721Z,32.80
2018-08-19T12:32:40.063Z,32.70
2018-08-19T12:35:08.531Z,32.60
2018-08-19T12:37:36.970Z,31.80
2018-08-19T12:40:05.762Z,30.90
2018-08-19T12:42:39.101Z,31.90
2018-08-19T12:45:08.117Z,32.50
2018-08-19T12:47:37.138Z,32.40
2018-08-19T12:50:08.588Z,32.80
2018-08-19T12:52:37.100Z,33.60
2018-08-19T12:55:07.330Z,35.50
2018-08-19T12:57:36.596Z,36.80
2018-08-19T13:00:17.521Z,37.70
2018-08-19T13:02:47.624Z,38.20
2018-08-19T13:05:16.956Z,39.70
2018-08-19T13:07:45.447Z,40.00
2018-08-19T13:10:13.877Z,40.70
2018-08-19T13:12:58.537Z,39.70
2018-08-19T13:15:29.585Z,39.80
2018-08-19T13:17:57.978Z,39.60
2018-08-19T13:20:26.537Z,40.20
2018-08-19T13:23:00.102Z,39.90
2018-08-19T13:25:29.060Z,40.30
2018-08-19T13:27:57.576Z,40.90
2018-08-19T13:30:26.027Z,41.20
2018-08-19T13:32:54.463Z,40.50
2018-08-19T13:35:22.928Z,40.70
2018-08-19T13:37:51.622Z,42.10
2018-08-19T13:40:20.021Z,42.60
2018-08-19T13:42:48.516Z,41.20
2018-08-19T13:45:18.084Z,40.30
2018-08-19T13:47:47.958Z,40.80
2018-08-19T13:50:16.307Z,40.80
2018-08-19T13:52:45.123Z,41.50
2018-08-19T13:55:15.242Z,42.80
2018-08-19T13:57:43.690Z,41.80
2018-08-19T14:00:13.814Z,41.90
2018-08-19T14:02:42.400Z,41.30
2018-08-19T14:05:10.984Z,41.60
2018-08-19T14:07:39.393Z,41.30
2018-08-19T14:10:09.519Z,42.80
2018-08-19T14:12:44.299Z,42.50
2018-08-19T14:15:12.808Z,42.10
2018-08-19T14:17:41.338Z,41.80
2018-08-19T14:20:10.571Z,42.10
2018-08-19T14:22:38.953Z,42.70
2018-08-19T14:25:09.085Z,43.10
2018-08-19T14:27:37.966Z,43.50
2018-08-19T14:30:06.901Z,44.30
2018-08-19T14:32:40.468Z,43.80
2018-08-19T14:35:09.057Z,42.70
2018-08-19T14:37:40.443Z,43.20
2018-08-19T14:40:14.264Z,44.00
2018-08-19T14:42:42.536Z,44.30
2018-08-19T14:45:10.984Z,44.20
2018-08-19T14:47:39.414Z,44.40
2018-08-19T14:50:17.209Z,43.60
2018-08-19T14:52:45.621Z,43.50
2018-08-19T14:55:14.026Z,44.20
2018-08-19T14:57:42.417Z,44.00
2018-08-19T15:00:12.813Z,44.60
2018-08-19T15:02:41.298Z,44.10
2018-08-19T15:05:13.416Z,44.90
2018-08-19T15:07:41.870Z,43.70
2018-08-19T15:10:10.282Z,44.00
2018-08-19T15:12:38.640Z,43.50
2018-08-19T15:15:07.014Z,44.50
2018-08-19T15:17:35.473Z,44.30
2018-08-19T15:20:03.871Z,44.40
2018-08-19T15:22:32.361Z,45.30
2018-08-19T15:25:00.916Z,44.90
2018-08-19T15:27:30.025Z,45.60
2018-08-19T15:29:58.365Z,45.60
2018-08-19T15:32:27.141Z,45.00
2018-08-19T15:34:55.202Z,45.30
2018-08-19T15:37:23.568Z,44.50
2018-08-19T15:39:51.948Z,45.10
2018-08-19T15:42:20.384Z,45.30
2018-08-19T15:44:48.811Z,44.90
2018-08-19T15:47:17.316Z,44.30
2018-08-19T15:49:45.747Z,44.40
2018-08-19T15:52:14.150Z,44.70
2018-08-19T15:54:46.955Z,45.50
2018-08-19T15:57:15.393Z,43.70
2018-08-19T15:59:43.845Z,44.10
2018-08-19T16:02:12.276Z,43.00
2018-08-19T16:04:40.708Z,43.60
2018-08-19T16:07:09.183Z,43.40
2018-08-19T16:09:37.516Z,43.90
2018-08-19T16:12:05.951Z,43.50
2018-08-19T16:14:34.453Z,43.50
2018-08-19T16:17:03.392Z,43.20
2018-08-19T16:19:31.742Z,43.30
2018-08-19T16:22:00.533Z,43.10
2018-08-19T16:24:29.243Z,43.90
2018-08-19T16:26:57.650Z,43.70
2018-08-19T16:29:26.054Z,43.30
2018-08-19T16:31:54.641Z,43.40
2018-08-19T16:34:23.067Z,42.90
2018-08-19T16:36:51.550Z,42.90
2018-08-19T16:39:20.245Z,43.40
2018-08-19T16:41:48.606Z,43.60
2018-08-19T16:44:17.068Z,43.30
2018-08-19T16:46:45.453Z,42.80
2018-08-19T16:49:13.931Z,42.70
2018-08-19T16:51:42.487Z,42.70
2018-08-19T16:54:10.965Z,42.70
2018-08-19T16:56:39.583Z,42.90
2018-08-19T16:59:08.075Z,42.90
2018-08-19T17:01:36.455Z,42.20
2018-08-19T17:04:04.861Z,42.50
2018-08-19T17:06:33.390Z,42.80
2018-08-19T17:09:01.830Z,43.70
2018-08-19T17:11:30.292Z,44.00
2018-08-19T17:13:58.731Z,44.30
2018-08-19T17:16:27.182Z,44.50
2018-08-19T17:18:55.700Z,44.90
2018-08-19T17:21:24.176Z,45.50
2018-08-19T17:23:52.624Z,46.40
2018-08-19T17:26:22.445Z,47.40
2018-08-19T17:28:51.108Z,47.70
2018-08-19T17:31:19.688Z,47.90
2018-08-19T17:33:48.127Z,48.40
2018-08-19T17:36:23.022Z,48.70
2018-08-19T17:38:51.435Z,48.80
2018-08-19T17:41:19.811Z,49.60
2018-08-19T17:43:48.186Z,50.30
2018-08-19T17:46:17.303Z,50.00
2018-08-19T17:48:45.797Z,50.40
2018-08-19T17:51:26.766Z,50.90
2018-08-19T17:53:55.158Z,51.00
2018-08-19T17:56:23.534Z,51.00
2018-08-19T17:58:51.975Z,50.90
2018-08-19T18:01:20.666Z,51.00
2018-08-19T18:03:49.144Z,51.10
2018-08-19T18:06:17.633Z,52.00
2018-08-19T18:08:50.396Z,52.10
2018-08-19T18:11:19.029Z,52.60
2018-08-19T18:13:47.850Z,52.60
2018-08-19T18:16:16.366Z,53.00
2018-08-19T18:18:45.437Z,53.20
2018-08-19T18:21:13.964Z,53.20
2018-08-19T18:23:46.874Z,53.70
2018-08-19T18:26:15.509Z,53.60
2018-08-19T18:28:45.546Z,54.50
2018-08-19T18:31:14.013Z,54.30
2018-08-19T18:33:50.325Z,54.70
2018-08-19T18:36:20.336Z,55.20
2018-08-19T18:38:48.613Z,55.90
2018-08-19T18:41:23.730Z,55.60
2018-08-19T18:43:54.142Z,55.90
2018-08-19T18:46:23.130Z,55.50
2018-08-19T18:49:06.174Z,56.00
2018-08-19T18:51:34.635Z,56.00
2018-08-19T18:56:56.261Z,57.20
2018-08-19T18:59:24.414Z,58.10
2018-08-19T19:01:55.821Z,58.70
2018-08-19T19:04:23.998Z,59.10
2018-08-19T19:06:52.224Z,59.90
2018-08-19T19:09:20.429Z,60.40
2018-08-19T19:11:50.524Z,60.90
2018-08-19T19:14:19.803Z,60.60
2018-08-19T19:16:48.933Z,61.30
2018-08-19T19:19:17.198Z,61.10
2018-08-19T19:21:49.785Z,63.00
2018-08-19T19:24:23.475Z,65.10
2018-08-19T19:26:51.677Z,63.80
2018-08-19T19:29:26.175Z,64.70
2018-08-19T19:31:54.922Z,64.00
2018-08-19T19:34:23.208Z,63.70
2018-08-19T19:36:51.361Z,65.70
2018-08-19T19:39:19.578Z,66.90
2018-08-19T19:41:50.498Z,67.60
2018-08-19T19:44:25.905Z,68.10
2018-08-19T19:46:54.447Z,68.40
2018-08-19T19:49:23.192Z,68.70
2018-08-19T19:51:56.849Z,69.50
2018-08-19T19:54:25.453Z,70.30
2018-08-19T19:56:53.672Z,71.30
2018-08-19T19:59:25.457Z,72.30
2018-08-19T20:01:53.678Z,73.00
2018-08-19T20:04:21.910Z,74.20
2018-08-19T20:06:50.103Z,75.90
2018-08-19T20:09:25.079Z,76.20
2018-08-19T20:11:53.314Z,76.80
2018-08-19T20:14:21.524Z,78.60
2018-08-19T20:16:49.754Z,79.60
2018-08-19T20:19:17.987Z,80.40
2018-08-19T20:21:46.223Z,81.90
2018-08-19T20:24:14.480Z,83.40
2018-08-19T20:26:42.804Z,84.20
2018-08-19T20:29:11.182Z,84.80
2018-08-19T20:31:39.430Z,85.60
2018-08-19T20:34:07.754Z,85.90
2018-08-19T20:36:36.056Z,87.70
2018-08-19T20:39:06.307Z,88.80
2018-08-19T20:41:34.691Z,89.20
2018-08-19T20:44:03.360Z,90.10
2018-08-19T20:46:32.501Z,90.90
2018-08-19T20:49:00.689Z,91.40
2018-08-19T20:51:28.854Z,91.70
2018-08-19T20:53:57.011Z,90.90
2018-08-19T20:56:25.189Z,91.20
2018-08-19T20:58:53.489Z,92.50
2018-08-19T21:01:27.814Z,93.50
2018-08-19T21:03:56.282Z,93.60
2018-08-19T21:06:24.519Z,95.10
2018-08-19T21:08:52.790Z,96.10
2018-08-19T21:11:21.051Z,97.20
2018-08-19T21:13:49.269Z,97.60
2018-08-19T21:16:17.473Z,98.20
2018-08-19T21:18:45.694Z,99.90
2018-08-19T21:21:13.913Z,99.90
2018-08-19T21:23:42.135Z,99.90
2018-08-19T21:26:10.300Z,99.90
2018-08-19T21:28:38.587Z,99.90
2018-08-19T21:31:06.826Z,99.90
2018-08-19T21:33:35.114Z,99.90
2018-08-19T21:36:03.328Z,99.90
2018-08-19T21:38:31.502Z,99.90
2018-08-19T21:40:59.746Z,99.90
2018-08-19T21:43:29.857Z,99.90
2018-08-19T21:45:58.979Z,99.90
2018-08-19T21:48:27.214Z,99.90
2018-08-19T21:50:55.439Z,99.90
2018-08-19T21:53:23.724Z,99.90
2018-08-19T21:55:52.771Z,99.90
2018-08-19T21:58:21.063Z,99.90
2018-08-19T22:00:55.870Z,99.90
2018-08-19T22:03:29.563Z,99.90
2018-08-19T22:05:57.753Z,99.90
2018-08-19T22:08:25.986Z,99.90
2018-08-19T22:10:54.230Z,99.90
2018-08-19T22:13:22.426Z,99.90
2018-08-19T22:15:50.704Z,99.90
2018-08-19T22:18:20.158Z,99.90
2018-08-19T22:21:04.854Z,99.90
2018-08-19T22:23:38.328Z,99.90
2018-08-19T22:26:06.822Z,99.90
2018-08-19T22:28:35.176Z,99.90
2018-08-19T22:31:15.461Z,99.90
2018-08-19T22:33:48.573Z,99.90
2018-08-19T22:36:17.243Z,99.90
2018-08-19T22:38:45.419Z,99.90
2018-08-19T22:41:13.671Z,99.90
2018-08-19T22:43:41.946Z,99.90
2018-08-19T22:46:10.134Z,99.90
2018-08-19T22:48:43.408Z,99.90
2018-08-19T22:51:12.597Z,99.90
2018-08-19T22:53:40.804Z,99.90
2018-08-19T22:56:09.033Z,99.90
2018-08-19T22:58:37.639Z,99.90
2018-08-19T23:01:06.499Z,99.90
2018-08-19T23:03:34.757Z,99.90
2018-08-19T23:06:02.982Z,99.90
2018-08-19T23:08:32.560Z,99.90
2018-08-19T23:11:01.973Z,99.90
2018-08-19T23:13:41.923Z,99.90
2018-08-19T23:16:12.049Z,99.90
2018-08-19T23:18:41.031Z,99.90
2018-08-19T23:21:09.621Z,99.90
2018-08-19T23:23:37.836Z,99.90
2018-08-19T23:26:06.254Z,99.90
2018-08-19T23:28:34.588Z,99.90
2018-08-19T23:31:02.823Z,99.90
2018-08-19T23:33:31.029Z,99.90
2018-08-19T23:35:59.208Z,99.90
2018-08-19T23:38:27.405Z,99.90
2018-08-19T23:40:55.613Z,99.90
2018-08-19T23:43:23.817Z,99.90
2018-08-19T23:45:51.989Z,99.90
2018-08-19T23:48:20.178Z,99.90
2018-08-19T23:50:48.427Z,99.90
2018-08-19T23:53:16.637Z,99.90
2018-08-19T23:55:44.924Z,99.90
2018-08-19T23:58:13.161Z,99.90
